Tiempo atmosférico en la estación meteorológica de Barco De Avila, Ávila (1012 m.)



Fecha
DESCASC
Temp. máxima en grados centígrados (hora)
DESCASC
Temp. mínima en grados centígrados (hora)
DESCASC
Temp. media en grados centígrados
DESCASC
Racha de viento máxima en m/sg (hora)
DESCASC
Velocidad máxima media en intervalos de 10 minutos(hora)
DESCASC
Precipitaciones diarias en mm
DESCASC
Precipitaciones de 00:00 a 06:00 en mm
DESCASC
Precipitaciones de 06:00 a 12:00 en mm
DESCASC
Precipitaciones de 12:00 a 18:00 en mm
DESCASC
Precipitaciones de 18:00 a 24:00 en mm
DESCASC
21-02-2021 12.4 (04:00) 0.2 (19:40) 6.3 23.61 (03:30) 15 (04:50) 34.6 0.2 12.6 14 7.8
20-02-2021 12.9 (13:50) 8.6 (06:50) 10.8 19.72 (03:20) 13.61 (03:20) 0 0 0 0 0
19-02-2021 14.7 (13:10) 7.4 (00:50) 11 15.83 (15:50) 9.72 (22:20) 0 0 0 0 0
18-02-2021 12.3 (15:20) 6.5 (00:00) 9.4 16.39 (13:20) 10.83 (14:20) 0 0 0 0 0
17-02-2021 14.8 (15:00) 3.7 (00:00) 9.3 10.28 (13:20) 6.94 (11:40) 0 0 0 0 0
16-02-2021 13.9 (14:50) 8 (00:00) 10.9 11.94 (12:20) 7.78 (12:50) 0 0 0 0 0
15-02-2021 17.7 (14:10) 1.4 (00:00) 9.6 10 (00:20) 6.39 (14:40) 0 0 0 0 0
14-02-2021 16 (15:40) -1.5 (-00:0) 7.3 8.89 (23:59) 5.83 (23:40) 0 0 0 0 0
13-02-2021 13.9 (16:20) -0.5 (-00:0) 6.7 5.28 (14:20) 3.33 (04:40) 0 0 0 0 0
12-02-2021 11 (16:10) 1.9 (00:00) 6.4 11.67 (01:50) 5.28 (03:00) 4.8 4.8 0 0 0
11-02-2021 11.9 (15:20) 7.1 (00:00) 9.5 12.22 (13:40) 8.33 (11:20) 0 0 0 0 0
10-02-2021 12.8 (16:50) 4.5 (00:00) 8.7 16.67 (02:10) 10.28 (02:20) 5.6 5.6 0 0 0
09-02-2021 6.7 (13:10) 4.1 (00:00) 5.4 16.94 (18:30) 10.28 (17:50) 27.6 0.4 15.8 9.8 1.6
08-02-2021 7.6 (16:10) 3.6 (00:00) 5.6 11.39 (00:10) 7.78 (01:10) 17.2 15.4 1.8 0 0
07-02-2021 9.2 (14:10) 0.4 (00:00) 4.8 11.94 (21:40) 8.33 (23:30) 2.6 0 0 1.6 1
06-02-2021 10.3 (14:10) 4.1 (00:00) 7.2 5.83 (20:00) 3.61 (15:00) 4.4 2.4 0.6 1.4 0
05-02-2021 10 (14:40) 3.8 (00:00) 6.9 7.5 (09:10) 4.17 (09:10) 12.8 5.2 1.8 0.6 5.2
04-02-2021 7.5 (10:50) 3.8 (00:00) 5.6 9.72 (03:50) 5 (03:30) 7 0 0.2 4.4 2.4
03-02-2021 10.4 (15:30) 6.4 (00:00) 8.4 13.33 (13:30) 8.89 (13:30) 1 0 0 0 1
02-02-2021 11.3 (14:10) 5.7 (00:00) 8.5 18.33 (19:40) 12.78 (20:00) 0 0 0 0 0
01-02-2021 13.2 (17:10) 2.9 (00:00) 8 16.39 (00:20) 6.11 (15:00) 0 0 0 0 0
31-01-2021 13.4 (17:20) 5.2 (00:00) 9.3 12.5 (18:00) 6.67 (23:20) 0.6 0 0.4 0.2 0
30-01-2021 10.4 (00:10) 5.3 (00:00) 7.8 15.83 (00:30) 10.56 (01:30) 4.6 2.8 1.2 0 0.6
29-01-2021 16.9 (13:20) 2.2 (00:00) 9.5 11.11 (23:40) 6.39 (18:00) 0 0 0 0 0
28-01-2021 18.7 (14:40) 3.8 (00:00) 11.3 10 (17:50) 6.39 (17:30) 0 0 0 0 0
27-01-2021 18.8 (15:30) 6.3 (00:00) 12.5 5 (16:00) 2.5 (21:50) 1.2 1 0.2 0 0
26-01-2021 13.8 (15:20) 8.4 (00:00) 11.1 5.83 (02:50) 2.5 (03:10) 0.6 0 0.2 0 0.4
25-01-2021 12.9 (15:40) 6.6 (00:00) 9.7 11.67 (14:50) 7.5 (07:10) 0.2 0 0 0 0.2

Gráficas

Temp. máximas Temp. mínimas Temp. medias Precipitaciones Rachas de viento máximas Velocidades máximas media en intervalos de 10 minutos

Datos horarios

Fecha y hora oficial Temperatura (ºC) Velocidad del viento (km/h) Dirección del viento Racha (km/h) Dirección de racha Precipitación (mm) Presión (hPa) Tendencia (hPa) Humedad (%)
2021-02-23 23:00:00 1.6 6 Sudoeste 15 Sudoeste 0 -- -- 76
2021-02-23 22:00:00 3.8 6 Sudoeste 20 Sudeste 0 -- -- 69
2021-02-23 21:00:00 6.1 10 Sur 24 Sudeste 0 -- -- 64
2021-02-23 20:00:00 7.9 8 Sur 19 Sudeste 0 -- -- 56
2021-02-23 19:00:00 9.8 15 Sudeste 26 Sur 0 -- -- 42
2021-02-23 18:00:00 12.2 15 Sur 23 Sur 0 -- -- 38
2021-02-23 17:00:00 12.6 12 Sur 27 Sur 0 -- -- 44
2021-02-23 16:00:00 12.4 15 Sur 28 Sur 0 -- -- 43
2021-02-23 15:00:00 12.3 18 Sur 30 Sur 0 -- -- 47
2021-02-23 14:00:00 11.8 21 Sur 30 Sur 0 -- -- 45
2021-02-23 13:00:00 11.7 15 Sur 25 Sur 0 -- -- 37
2021-02-23 12:00:00 10.3 13 Sur 24 Sudeste 0 -- -- 35
2021-02-23 11:00:00 6 13 Sudoeste 24 Sur 0 -- -- 49
2021-02-23 10:00:00 2 12 Sudoeste 25 Sudoeste 0 -- -- 54
2021-02-23 09:00:00 -2.3 10 Sudoeste 21 Sudoeste 0 -- -- 76
2021-02-23 08:00:00 -3.8 12 Sudoeste 21 Sudoeste 0 -- -- 84
2021-02-23 07:00:00 -3.7 10 Sudoeste 17 Sur 0 -- -- 83
2021-02-23 06:00:00 -3.2 9 Sudoeste 22 Sudoeste 0 -- -- 79
2021-02-23 05:00:00 -2.3 11 Sudoeste 21 Sudoeste 0 -- -- 69
2021-02-23 04:00:00 -2.2 13 Sudoeste 20 Sudoeste 0 -- -- 79
2021-02-23 03:00:00 -1.9 13 Sudoeste 21 Sudoeste 0 -- -- 82
2021-02-23 02:00:00 -1.3 13 Sudoeste 21 Sudoeste 0 -- -- 80
2021-02-23 01:00:00 -1 12 Sudoeste 19 Sudoeste 0 -- -- 81
2021-02-23 00:00:00 -0.8 13 Sudoeste 20 Sudoeste 0 -- -- 83
2021-02-22 23:00:00 -0.3 9 Sudoeste 18 Sudoeste 0 -- -- 82
2021-02-22 22:00:00 0.4 13 Sudoeste 18 Sudoeste 0 -- -- 81
2021-02-22 21:00:00 1.9 10 Sudoeste 15 Sudoeste 0 -- -- 77
2021-02-22 20:00:00 3.8 6 Sudoeste 10 Sudoeste 0 -- -- 68
2021-02-22 19:00:00 7.6 0 Calma 16 Este 0 -- -- 52
2021-02-22 18:00:00 9 10 Este 18 Este 0 -- -- 52
2021-02-22 17:00:00 9 9 Este 17 Nordeste 0 -- -- 51
2021-02-22 16:00:00 8.8 7 Norte 14 Norte 0 -- -- 51
2021-02-22 15:00:00 8.2 4 Este 14 Nordeste 0 -- -- 57
2021-02-22 14:00:00 7.1 4 Norte 11 Este 0 -- -- 54
2021-02-22 13:00:00 6.1 3 Sudeste 13 Este 0 -- -- 56
2021-02-22 12:00:00 4.9 2 Norte 9 Este 0 -- -- 62
2021-02-22 11:00:00 4.1 3 Este 20 Sudoeste 0 -- -- 70
2021-02-22 10:00:00 3.1 5 Este 9 Este 0 -- -- 79
2021-02-22 09:00:00 0.8 5 Este 8 Este 0 -- -- 90
2021-02-22 08:00:00 0.8 2 Este 6 Nordeste 0 -- -- 91
2021-02-22 07:00:00 1.2 4 Nordeste 8 Nordeste 0 -- -- 88
2021-02-22 06:00:00 1.5 3 Nordeste 8 Nordeste 0 -- -- 87
2021-02-22 05:00:00 1.7 3 Norte 10 Norte 0 -- -- 86
2021-02-22 04:00:00 2.2 5 Norte 24 Noroeste 0 -- -- 86
2021-02-22 03:00:00 2.1 4 Norte 18 Norte 0 -- -- 88
2021-02-22 02:00:00 1.9 0 Calma 9 Sudeste 0 -- -- 92
2021-02-22 01:00:00 2 4 Este 19 Noroeste 0 -- -- 91
2021-02-22 00:00:00 2 3 Nordeste 12 Este 0 -- -- 94
2021-02-21 23:00:00 1.1 3 Este 11 Este 0.4 -- -- 95
2021-02-21 22:00:00 0.8 6 Este 12 Este 0.8 -- -- 95
2021-02-21 21:00:00 0.5 4 Sudeste 10 Sudeste 1.4 -- -- 96
2021-02-21 20:00:00 0.4 3 Norte 10 Este 2.8 -- -- 95
2021-02-21 19:00:00 0.3 0 Calma 5 Este 2.4 -- -- 95
2021-02-21 18:00:00 0.4 2 Este 7 Este 1.8 -- -- 95
2021-02-21 17:00:00 0.7 4 Este 11 Nordeste 1.8 -- -- 95
2021-02-21 16:00:00 0.6 5 Norte 14 Nordeste 2.4 -- -- 94
2021-02-21 15:00:00 1.3 9 Nordeste 23 Nordeste 3.2 -- -- 93
2021-02-21 14:00:00 2.8 15 Norte 30 Norte 2 -- -- 91
2021-02-21 13:00:00 4.5 8 Nordeste 30 Oeste 2.8 -- -- 91
2021-02-21 12:00:00 6 20 Oeste 35 Oeste 1 -- -- 88
2021-02-21 11:00:00 7.1 21 Sur 34 Sur 1.2 -- -- 85
2021-02-21 10:00:00 7 22 Sur 45 Sur 2 -- -- 83
2021-02-21 09:00:00 6.5 25 Sur 53 Sudeste 3.8 -- -- 85
2021-02-21 08:00:00 7.2 31 Sur 60 Sur 3.6 -- -- 80
2021-02-21 07:00:00 8.1 40 Sur 75 Sudeste 1 -- -- 71
2021-02-21 06:00:00 9.5 42 Sur 68 Sur 0.2 -- -- 55
2021-02-21 05:00:00 11.4 49 Sur 85 Sur 0 -- -- 41
2021-02-21 04:00:00 12.4 46 Sur 85 Sur 0 -- -- 29
2021-02-21 03:00:00 11.3 37 Sur 70 Sur 0 -- -- 41
2021-02-21 02:00:00 11.8 42 Sur 68 Sur 0 -- -- 39
2021-02-21 01:00:00 11.1 31 Sudoeste 57 Sur 0 -- -- 44
2021-02-21 00:00:00 11.1 32 Sudoeste 58 Sudoeste 0 -- -- 43
2021-02-20 23:00:00 11.2 35 Sudoeste 58 Sudoeste 0 -- -- 44
2021-02-20 22:00:00 10.7 30 Sur 63 Sur 0 -- -- 39
2021-02-20 21:00:00 10.6 31 Sur 59 Sur 0 -- -- 36
2021-02-20 20:00:00 10.5 37 Sur 62 Sur 0 -- -- 38
2021-02-20 19:00:00 10.7 46 Sur 66 Sur 0 -- -- 39
2021-02-20 18:00:00 10.8 20 Sur 46 Sur 0 -- -- 39
2021-02-20 17:00:00 11.2 17 Sur 42 Sudoeste 0 -- -- 40
2021-02-20 16:00:00 11.7 22 Sur 49 Sudoeste 0 -- -- 41
2021-02-20 15:00:00 11.6 26 Sur 52 Sur 0 -- -- 39
2021-02-20 14:00:00 12.5 33 Sur 55 Sudeste 0 -- -- 39
2021-02-20 13:00:00 12.1 32 Sur 53 Sudeste 0 -- -- 38
2021-02-20 12:00:00 11.8 28 Sur 54 Sur 0 -- -- 43
2021-02-20 11:00:00 11.4 30 Sur 52 Sur 0 -- -- 41
2021-02-20 10:00:00 10.4 26 Sur 42 Sur 0 -- -- 45
2021-02-20 09:00:00 9.5 23 Sur 39 Sur 0 -- -- 46
2021-02-20 08:00:00 8.9 28 Sur 46 Sur 0 -- -- 49
2021-02-20 07:00:00 8.6 24 Sur 39 Sur 0 -- -- 50
2021-02-20 06:00:00 9 27 Sur 46 Sudoeste 0 -- -- 47
2021-02-20 05:00:00 8.9 29 Sudoeste 54 Sudoeste 0 -- -- 53
2021-02-20 04:00:00 9.6 36 Sudoeste 71 Sudoeste 0 -- -- 50
2021-02-20 03:00:00 10 47 Sudoeste 68 Sudoeste 0 -- -- 47
2021-02-20 02:00:00 10.2 39 Sudoeste 60 Sur 0 -- -- 43
2021-02-20 01:00:00 10.1 36 Sur 54 Sur 0 -- -- 52
2021-02-20 00:00:00 10.1 31 Sudoeste 52 Sudoeste 0 -- -- 58
2021-02-19 23:00:00 10.3 31 Sudoeste 52 Sur 0 -- -- 59
2021-02-19 22:00:00 10.9 29 Sur 52 Sur 0 -- -- 55
2021-02-19 21:00:00 10.8 31 Sudoeste 45 Sudoeste 0 -- -- 48
2021-02-19 20:00:00 9.8 23 Sur 40 Sur 0 -- -- 42
2021-02-19 19:00:00 10.8 25 Sudoeste 47 Sur 0 -- -- 37
2021-02-19 18:00:00 11.7 25 Sudoeste 50 Sudoeste 0 -- -- 40
2021-02-19 17:00:00 13.8 28 Sudoeste 51 Sudoeste 0 -- -- 34
2021-02-19 16:00:00 12.8 30 Sudoeste 57 Sur 0 -- -- 38
2021-02-19 15:00:00 12.6 31 Sur 54 Sur 0 -- -- 38
2021-02-19 14:00:00 12.8 30 Sudoeste 46 Sudoeste 0 -- -- 34
2021-02-19 13:00:00 14.6 19 Sudoeste 39 Sudoeste 0 -- -- 36
2021-02-19 12:00:00 13.5 15 Sudoeste 38 Sudoeste 0 -- -- 37
2021-02-19 11:00:00 11.9 16 Sudoeste 34 Sur 0 -- -- 44
2021-02-19 10:00:00 9.9 15 Sudoeste 30 Sudoeste 0 -- -- 57
2021-02-19 09:00:00 8.3 12 Oeste 29 Sudoeste 0 -- -- 61
2021-02-19 08:00:00 7.7 16 Oeste 30 Oeste 0 -- -- 67
2021-02-19 07:00:00 7.7 15 Oeste 26 Oeste 0 -- -- 70
2021-02-19 06:00:00 7.6 15 Oeste 29 Oeste 0 -- -- 71
2021-02-19 05:00:00 7.5 12 Oeste 26 Oeste 0 -- -- 73
2021-02-19 04:00:00 7.5 9 Oeste 26 Sudoeste 0 -- -- 69
2021-02-19 03:00:00 7.8 12 Sudoeste 30 Sudoeste 0 -- -- 69
2021-02-19 02:00:00 8.3 14 Oeste 22 Sudoeste 0 -- -- 64
2021-02-19 01:00:00 7.6 7 Sudoeste 15 Oeste 0 -- -- 62
2021-02-19 00:00:00 7.8 5 Sudoeste 26 Sudoeste 0 -- -- 68
2021-02-18 23:00:00 9 14 Sudoeste 33 Sudoeste 0 -- -- 57
2021-02-18 22:00:00 8.8 17 Sudoeste 27 Sudoeste 0 -- -- 67
2021-02-18 21:00:00 8.7 18 Sudoeste 27 Sudoeste 0 -- -- 69
2021-02-18 20:00:00 8.7 10 Sudoeste 26 Sur 0 -- -- 67
2021-02-18 19:00:00 9.3 16 Sudoeste 31 Oeste 0 -- -- 65
2021-02-18 18:00:00 10.4 21 Sudoeste 38 Sudoeste 0 -- -- 59
2021-02-18 17:00:00 11.7 26 Sudoeste 45 Sudoeste 0 -- -- 50
2021-02-18 16:00:00 12.1 29 Sudoeste 48 Sudoeste 0 -- -- 48
2021-02-18 15:00:00 12 35 Sudoeste 55 Sudoeste 0 -- -- 44
2021-02-18 14:00:00 12 33 Sudoeste 59 Sudoeste 0 -- -- 48
2021-02-18 13:00:00 11.6 31 Sudoeste 50 Sur 0 -- -- 50
2021-02-18 12:00:00 9.8 30 Sudoeste 47 Sudoeste 0 -- -- 59
2021-02-18 11:00:00 10.5 16 Sudoeste 30 Sudoeste 0 -- -- 56
2021-02-18 10:00:00 9.2 15 Sudoeste 31 Sudoeste 0 -- -- 60
2021-02-18 09:00:00 8.4 13 Sudoeste 34 Sudoeste 0 -- -- 63
2021-02-18 08:00:00 8 22 Sudoeste 33 Sudoeste 0 -- -- 65
2021-02-18 07:00:00 8 20 Sudoeste 32 Sudoeste 0 -- -- 67
2021-02-18 06:00:00 7.6 15 Sudoeste 27 Sudoeste 0 -- -- 66
2021-02-18 05:00:00 7.5 11 Oeste 24 Sudoeste 0 -- -- 75
2021-02-18 04:00:00 7.3 6 Sudoeste 24 Sudoeste 0 -- -- 83
2021-02-18 03:00:00 7.5 14 Sudoeste 23 Sudoeste 0 -- -- 82
2021-02-18 02:00:00 7.3 6 Sudoeste 24 Sudoeste 0 -- -- 78
2021-02-18 01:00:00 8 9 Sudoeste 27 Sudoeste 0 -- -- 71
2021-02-18 00:00:00 9 12 Sur 29 Sudoeste 0 -- -- 67
2021-02-17 23:00:00 10.1 18 Sudoeste 30 Sudoeste 0 -- -- 61
2021-02-17 22:00:00 10 15 Sudoeste 30 Sudoeste 0 -- -- 60
2021-02-17 21:00:00 8.9 9 Sudoeste 24 Oeste 0 -- -- 63
2021-02-17 20:00:00 10.7 16 Sudoeste 25 Sudoeste 0 -- -- 58
2021-02-17 19:00:00 11.4 13 Oeste 23 Oeste 0 -- -- 54
2021-02-17 18:00:00 12.8 16 Oeste 27 Oeste 0 -- -- 50
2021-02-17 17:00:00 13.8 18 Sudoeste 31 Oeste 0 -- -- 50
2021-02-17 16:00:00 14.7 18 Sudoeste 34 Sudoeste 0 -- -- 48
2021-02-17 15:00:00 14.8 21 Sudoeste 36 Sudoeste 0 -- -- 47
2021-02-17 14:00:00 14.2 23 Sudoeste 37 Sudoeste 0 -- -- 52
2021-02-17 13:00:00 13.7 23 Sudoeste 35 Sudoeste 0 -- -- 56
2021-02-17 12:00:00 11.2 21 Oeste 36 Oeste 0 -- -- 67
2021-02-17 11:00:00 10.5 21 Sudoeste 32 Oeste 0 -- -- 67
2021-02-17 10:00:00 8.5 3 Noroeste 13 Nordeste 0 -- -- 80
2021-02-17 09:00:00 4.8 4 Este 9 Nordeste 0 -- -- 91
2021-02-17 08:00:00 3.7 0 Calma 8 Sudoeste 0 -- -- 89
2021-02-17 07:00:00 4.9 3 Este 9 Nordeste 0 -- -- 88
2021-02-17 06:00:00 5.3 6 Oeste 11 Sudoeste 0 -- -- 84
2021-02-17 05:00:00 6.3 6 Oeste 17 Sudoeste 0 -- -- 87
2021-02-17 04:00:00 5.3 3 Sudoeste 11 Oeste 0 -- -- 84
2021-02-17 03:00:00 6.1 8 Sudoeste 13 Sudoeste 0 -- -- 81
2021-02-17 02:00:00 6.7 7 Sudoeste 10 Sudoeste 0 -- -- 82
2021-02-17 01:00:00 7.3 7 Sudoeste 10 Sudoeste 0 -- -- 81
2021-02-17 00:00:00 8.4 6 Sudoeste 13 Sudoeste 0 -- -- 77
2021-02-16 23:00:00 9.1 8 Oeste 17 Oeste 0 -- -- 74
2021-02-16 22:00:00 9.3 5 Oeste 18 Oeste 0 -- -- 73
2021-02-16 21:00:00 9.3 9 Oeste 26 Sudoeste 0 -- -- 72
2021-02-16 20:00:00 8.9 16 Oeste 27 Sudoeste 0 -- -- 73
2021-02-16 19:00:00 9.6 15 Oeste 26 Oeste 0 -- -- 68
2021-02-16 18:00:00 10.7 17 Sudoeste 28 Sudoeste 0 -- -- 63
2021-02-16 17:00:00 12.1 19 Sudoeste 30 Oeste 0 -- -- 57
2021-02-16 16:00:00 12.9 20 Sudoeste 36 Sudoeste 0 -- -- 54
2021-02-16 15:00:00 13.7 18 Sudoeste 35 Sudoeste 0 -- -- 53
2021-02-16 14:00:00 12.7 24 Sudoeste 37 Sudoeste 0 -- -- 57
2021-02-16 13:00:00 11.9 24 Sudoeste 43 Sudoeste 0 -- -- 59
2021-02-16 12:00:00 11.5 25 Oeste 40 Sudoeste 0 -- -- 58
2021-02-16 11:00:00 10.7 24 Sudoeste 37 Sudoeste 0 -- -- 60
2021-02-16 10:00:00 9.9 20 Sudoeste 33 Sudoeste 0 -- -- 62
2021-02-16 09:00:00 9 15 Sur 31 Sur 0 -- -- 64
2021-02-16 08:00:00 9.2 12 Sur 33 Sudoeste 0 -- -- 62
2021-02-16 07:00:00 8 5 Sur 15 Sudoeste 0 -- -- 66
2021-02-16 06:00:00 8.7 11 Sur 21 Sur 0 -- -- 61
2021-02-16 05:00:00 9 13 Sur 24 Sur 0 -- -- 59
2021-02-16 04:00:00 9.6 13 Sur 28 Sur 0 -- -- 57
2021-02-16 03:00:00 10 17 Sudoeste 27 Sur 0 -- -- 53
2021-02-16 02:00:00 9.9 17 Sudoeste 27 Sudoeste 0 -- -- 59
2021-02-16 01:00:00 10.1 12 Sur 28 Sudoeste 0 -- -- 55
2021-02-16 00:00:00 8.5 9 Sudoeste 22 Sur 0 -- -- 59
2021-02-15 23:00:00 8.9 12 Sur 30 Sudoeste 0 -- -- 54
2021-02-15 22:00:00 11.1 15 Sudoeste 33 Sudoeste 0 -- -- 50
2021-02-15 21:00:00 11.2 17 Sudoeste 26 Sur 0 -- -- 43
2021-02-15 20:00:00 11.6 19 Sudoeste 28 Sur 0 -- -- 43
2021-02-15 19:00:00 12.2 16 Sudoeste 33 Sudoeste 0 -- -- 46
2021-02-15 18:00:00 14.6 19 Sudoeste 32 Sudoeste 0 -- -- 41
2021-02-15 17:00:00 16 21 Sudoeste 33 Sudoeste 0 -- -- 40
2021-02-15 16:00:00 17 18 Sudoeste 31 Sudoeste 0 -- -- 39
2021-02-15 15:00:00 17.4 18 Sudoeste 33 Sudoeste 0 -- -- 34
2021-02-15 14:00:00 17.1 15 Sudoeste 29 Sudoeste 0 -- -- 34
2021-02-15 13:00:00 15.5 9 Sudoeste 22 Sur 0 -- -- 43
2021-02-15 12:00:00 13.3 14 Sur 28 Sur 0 -- -- 55
2021-02-15 11:00:00 10.1 16 Sur 29 Sur 0 -- -- 65
2021-02-15 10:00:00 6.8 14 Sudoeste 22 Sur 0 -- -- 72
2021-02-15 09:00:00 1.4 4 Sur 15 Sudoeste 0 -- -- 80
2021-02-15 08:00:00 2.8 6 Sur 24 Sudoeste 0 -- -- 76
2021-02-15 07:00:00 4.7 13 Sur 23 Sur 0 -- -- 77
2021-02-15 06:00:00 4.7 14 Sur 24 Sudoeste 0 -- -- 80
2021-02-15 05:00:00 5.6 17 Sudoeste 34 Sur 0 -- -- 75
2021-02-15 04:00:00 6.1 19 Sur 31 Sur 0 -- -- 75
2021-02-15 03:00:00 6.3 15 Sur 27 Sur 0 -- -- 74
2021-02-15 02:00:00 6.3 13 Sur 31 Sur 0 -- -- 75
2021-02-15 01:00:00 7 23 Sudoeste 36 Sur 0 -- -- 72
2021-02-15 00:00:00 8.1 21 Sur 32 Sudeste 0 -- -- 70
2021-02-14 23:00:00 8.5 17 Sur 31 Sur 0 -- -- 71
2021-02-14 22:00:00 9.4 17 Sur 29 Sudeste 0 -- -- 70
2021-02-14 21:00:00 10 13 Sudoeste 22 Sur 0 -- -- 70
2021-02-14 20:00:00 11.3 13 Sudoeste 22 Sudoeste 0 -- -- 65
2021-02-14 19:00:00 12.3 12 Sudoeste 27 Oeste 0 -- -- 59
2021-02-14 18:00:00 14.7 13 Oeste 26 Oeste 0 -- -- 50
2021-02-14 17:00:00 14.9 15 Oeste 30 Oeste 0 -- -- 49
2021-02-14 16:00:00 15.8 17 Oeste 32 Sudoeste 0 -- -- 49
2021-02-14 15:00:00 15.6 13 Oeste 27 Sudoeste 0 -- -- 50
2021-02-14 14:00:00 15.5 15 Oeste 26 Sudoeste 0 -- -- 49
2021-02-14 13:00:00 15 10 Sudoeste 18 Sudoeste 0 -- -- 48
2021-02-14 12:00:00 11.9 8 Sur 13 Sudoeste 0 -- -- 47
2021-02-14 11:00:00 7 4 Sudoeste 6 Oeste 0 -- -- 66
2021-02-14 10:00:00 2.6 4 Sudoeste 14 Oeste 0 -- -- 80
2021-02-14 09:00:00 -1.1 2 Norte 7 Noroeste 0 -- -- 92
2021-02-14 08:00:00 -0.2 8 Sudoeste 17 Sudoeste 0 -- -- 89
2021-02-14 07:00:00 0.5 11 Sudoeste 16 Sudoeste 0 -- -- 87
2021-02-14 06:00:00 0.3 3 Este 17 Sudoeste 0 -- -- 87
2021-02-14 05:00:00 1.5 9 Sudoeste 32 Sur 0 -- -- 87
2021-02-14 04:00:00 1.1 7 Oeste 11 Sudoeste 0 -- -- 90
2021-02-14 03:00:00 1.9 5 Sudoeste 16 Sudoeste 0 -- -- 90
2021-02-14 02:00:00 2.2 8 Sudoeste 12 Oeste 0 -- -- 90
2021-02-14 01:00:00 3.6 6 Oeste 14 Sudoeste 0 -- -- 91
2021-02-14 00:00:00 4.3 10 Sudoeste 15 Sudoeste 0 -- -- 90
2021-02-13 23:00:00 5.5 5 Sudoeste 8 Sudoeste 0 -- -- 87
2021-02-13 22:00:00 7.9 3 Oeste 5 Sur 0 -- -- 81
2021-02-13 21:00:00 9.3 3 Este 8 Norte 0 -- -- 78
2021-02-13 20:00:00 9.7 3 Norte 7 Norte 0 -- -- 74
2021-02-13 19:00:00 10.9 3 Norte 14 Norte 0 -- -- 68
2021-02-13 18:00:00 12.9 6 Norte 16 Norte 0 -- -- 60
2021-02-13 17:00:00 13.4 7 Nordeste 15 Norte 0 -- -- 57
2021-02-13 16:00:00 13.7 6 Este 17 Este 0 -- -- 54
2021-02-13 15:00:00 12.9 4 Norte 19 Nordeste 0 -- -- 52
2021-02-13 14:00:00 12.7 8 Nordeste 18 Nordeste 0 -- -- 49
2021-02-13 13:00:00 11.2 6 Este 15 Nordeste 0 -- -- 43
2021-02-13 08:00:00 -- -- -- -- -- -- -- -- --
2021-02-13 07:00:00 -0.2 5 Sudoeste 8 Sudoeste 0 -- -- 91
2021-02-13 06:00:00 -0.5 5 Este 15 Oeste 0 -- -- 89
2021-02-13 05:00:00 0.6 10 Sudoeste 17 Sudoeste 0 -- -- 89
2021-02-13 04:00:00 0.8 9 Sudoeste 15 Sudoeste 0 -- -- 90
2021-02-13 03:00:00 1 12 Sudoeste 17 Sudoeste 0 -- -- 92
2021-02-13 02:00:00 0.7 7 Oeste 10 Oeste 0 -- -- 93
2021-02-13 01:00:00 0.8 7 Oeste 10 Sudoeste 0 -- -- 93
2021-02-13 00:00:00 1.9 7 Oeste 10 Oeste 0 -- -- 91
2021-02-12 23:00:00 2.3 4 Sudoeste 13 Sudoeste 0 -- -- 90
2021-02-12 22:00:00 3.2 4 Oeste 8 Oeste 0 -- -- 88
2021-02-12 21:00:00 4.9 3 Nordeste 7 Nordeste 0 -- -- 84
2021-02-12 20:00:00 6.3 0 Calma 5 Sudeste 0 -- -- 79
2021-02-12 19:00:00 8.9 0 Calma 11 Norte 0 -- -- 69
2021-02-12 18:00:00 10.4 6 Noroeste 23 Noroeste 0 -- -- 62
2021-02-12 17:00:00 10.6 10 Norte 25 Norte 0 -- -- 60
2021-02-12 16:00:00 10.5 13 Noroeste 26 Noroeste 0 -- -- 62
2021-02-12 15:00:00 10.2 12 Noroeste 28 Noroeste 0 -- -- 62
2021-02-12 14:00:00 9.9 12 Noroeste 30 Noroeste 0 -- -- 65
2021-02-12 13:00:00 8.9 15 Norte 29 Norte 0 -- -- 69
2021-02-12 12:00:00 7.9 10 Noroeste 31 Noroeste 0 -- -- 76
2021-02-12 11:00:00 7.1 7 Norte 23 Norte 0 -- -- 79
2021-02-12 10:00:00 6.3 8 Norte 22 Noroeste 0 -- -- 85
2021-02-12 09:00:00 6.6 7 Noroeste 27 Noroeste 0 -- -- 80
2021-02-12 08:00:00 6.8 8 Noroeste 34 Noroeste 0 -- -- 77
2021-02-12 07:00:00 7.4 9 Sudoeste 30 Sudoeste 0 -- -- 78
2021-02-12 06:00:00 7.1 7 Norte 14 Noroeste 0 -- -- 87
2021-02-12 05:00:00 8.5 8 Sudoeste 26 Sudoeste 0.4 -- -- 87
2021-02-12 04:00:00 8.7 7 Sudoeste 22 Sur 0.6 -- -- 92
2021-02-12 03:00:00 8.7 19 Sudoeste 31 Sudoeste 3.8 -- -- 85
2021-02-12 02:00:00 9.5 16 Sudoeste 42 Sur 0 -- -- 88
2021-02-12 01:00:00 9.9 6 Sur 18 Sudoeste 0 -- -- 79
2021-02-12 00:00:00 9.4 7 Sudoeste 24 Oeste 0 -- -- 83
2021-02-11 23:00:00 9.3 13 Sudoeste 29 Oeste 0 -- -- 86
2021-02-11 22:00:00 8.9 17 Sudoeste 32 Oeste 0 -- -- 87
2021-02-11 21:00:00 9.2 18 Sudoeste 36 Sudoeste 0 -- -- 88
2021-02-11 20:00:00 9.4 21 Sudoeste 33 Oeste 0 -- -- 88
2021-02-11 19:00:00 9.7 22 Sudoeste 41 Oeste 0 -- -- 86
2021-02-11 18:00:00 9.9 29 Sudoeste 44 Sudoeste 0 -- -- 87
2021-02-11 17:00:00 10.6 24 Sudoeste 38 Sudoeste 0 -- -- 87
2021-02-11 16:00:00 11.5 28 Sudoeste 40 Sudoeste 0 -- -- 82
2021-02-11 15:00:00 11.8 25 Oeste 39 Oeste 0 -- -- 82
2021-02-11 14:00:00 11.3 27 Sudoeste 44 Sudoeste 0 -- -- 82
2021-02-11 13:00:00 10.5 21 Oeste 35 Oeste 0 -- -- 86
2021-02-11 12:00:00 10.3 20 Sudoeste 44 Oeste 0 -- -- 87
2021-02-11 11:00:00 9.9 25 Sudoeste 40 Sudoeste 0 -- -- 89
2021-02-11 10:00:00 9.7 23 Sudoeste 33 Sudoeste 0 -- -- 90
2021-02-11 09:00:00 9.1 3 Este 18 Oeste 0 -- -- 90
2021-02-11 08:00:00 9.4 8 Oeste 18 Sudoeste 0 -- -- 87
2021-02-11 07:00:00 10 9 Sudoeste 27 Oeste 0 -- -- 84
2021-02-11 06:00:00 9.6 7 Sudoeste 22 Sudoeste 0 -- -- 84
2021-02-11 05:00:00 8.8 9 Sudoeste 19 Sudoeste 0 -- -- 87
2021-02-11 04:00:00 9.3 13 Oeste 26 Oeste 0 -- -- 86
2021-02-11 03:00:00 7.8 2 Este 10 Sudoeste 0 -- -- 88
2021-02-11 02:00:00 8.3 8 Sudoeste 21 Oeste 0 -- -- 85
2021-02-11 01:00:00 7.3 4 Este 13 Este 0 -- -- 82
2021-02-11 00:00:00 7.2 5 Norte 12 Sudeste 0 -- -- 80
2021-02-10 23:00:00 6.5 3 Este 10 Sudoeste 0 -- -- 73
2021-02-10 22:00:00 6.7 8 Sur 19 Sudoeste 0 -- -- 70
2021-02-10 21:00:00 7.1 8 Sudoeste 18 Oeste 0 -- -- 79
2021-02-10 20:00:00 7.9 15 Oeste 27 Oeste 0 -- -- 77
2021-02-10 19:00:00 8.3 10 Oeste 27 Sudoeste 0 -- -- 71
2021-02-10 18:00:00 9.9 12 Oeste 29 Oeste 0 -- -- 59
2021-02-10 17:00:00 12.8 3 Sur 19 Oeste 0 -- -- 34
2021-02-10 16:00:00 12 14 Oeste 28 Norte 0 -- -- 46
2021-02-10 15:00:00 11.7 14 Norte 23 Norte 0 -- -- 37
2021-02-10 14:00:00 10.9 6 Sudeste 15 Sudeste 0 -- -- 51
2021-02-10 13:00:00 9.2 4 Nordeste 18 Este 0 -- -- 60
2021-02-10 12:00:00 7.8 6 Nordeste 23 Nordeste 0 -- -- 73
2021-02-10 11:00:00 6.7 12 Nordeste 22 Nordeste 0 -- -- 78
2021-02-10 10:00:00 5.6 8 Nordeste 15 Norte 0 -- -- 81
2021-02-10 09:00:00 5.1 6 Norte 23 Oeste 0 -- -- 76
2021-02-10 08:00:00 5.4 13 Noroeste 30 Noroeste 0 -- -- 73
2021-02-10 07:00:00 5.4 12 Noroeste 42 Oeste 0 -- -- 79
2021-02-10 06:00:00 5.5 22 Noroeste 47 Oeste 1.2 -- -- 78
2021-02-10 05:00:00 5.7 27 Oeste 56 Oeste 0.2 -- -- 81
2021-02-10 04:00:00 5.3 15 Oeste 50 Sudoeste 1.6 -- -- 92
2021-02-10 03:00:00 4.9 27 Sudoeste 60 Sudoeste 1 -- -- 90
2021-02-10 02:00:00 5.1 33 Sudoeste 53 Sudoeste 0.8 -- -- 91
2021-02-10 01:00:00 4.9 29 Sudoeste 44 Sudoeste 0.8 -- -- 89
2021-02-10 00:00:00 4.8 14 Sudoeste 43 Sudoeste 0.4 -- -- 91
2021-02-09 23:00:00 4.8 21 Sudoeste 41 Sudoeste 0.4 -- -- 90
2021-02-09 22:00:00 5.3 22 Sudoeste 45 Sudoeste 0 -- -- 83
2021-02-09 21:00:00 5.2 18 Sudoeste 41 Sudoeste 0 -- -- 82
2021-02-09 20:00:00 5.5 16 Sudoeste 49 Sudoeste 0.2 -- -- 89
2021-02-09 19:00:00 5.9 28 Sudoeste 61 Oeste 0.6 -- -- 87
2021-02-09 18:00:00 6.2 35 Sudoeste 59 Sudoeste 0 -- -- 82
2021-02-09 17:00:00 6.3 25 Sudoeste 42 Sudoeste 0 -- -- 85
2021-02-09 16:00:00 6.4 23 Sudoeste 37 Sudoeste 0 -- -- 81
2021-02-09 15:00:00 5.3 6 Oeste 15 Sur 1 -- -- 90
2021-02-09 14:00:00 4.6 3 Noroeste 45 Noroeste 3.8 -- -- 88
2021-02-09 13:00:00 6.6 23 Sudoeste 43 Sudoeste 5 -- -- 92
2021-02-09 12:00:00 6.1 23 Sudoeste 47 Sudoeste 4.6 -- -- 87
2021-02-09 11:00:00 5.7 31 Sudoeste 51 Sudoeste 3.8 -- -- 91
2021-02-09 10:00:00 6.1 31 Sudoeste 49 Sudoeste 2.6 -- -- 86
2021-02-09 09:00:00 5.9 27 Sudoeste 43 Sudoeste 2.8 -- -- 88
2021-02-09 08:00:00 5.9 15 Sudoeste 31 Sudoeste 1.2 -- -- 86
2021-02-09 07:00:00 5.9 23 Sudoeste 39 Sudoeste 0.8 -- -- 88
2021-02-09 06:00:00 5.9 17 Sudoeste 42 Sudoeste 0.4 -- -- 85
2021-02-09 05:00:00 5.7 12 Sudoeste 42 Sur 0 -- -- 86
2021-02-09 04:00:00 5.5 24 Sudoeste 48 Sudoeste 0 -- -- 85
2021-02-09 03:00:00 4.9 10 Sudoeste 33 Sudeste 0 -- -- 87
2021-02-09 02:00:00 4.5 11 Sudoeste 34 Sur 0 -- -- 82
2021-02-09 01:00:00 4.4 18 Oeste 41 Oeste 0 -- -- 79
2021-02-09 00:00:00 4.2 18 Sudoeste 36 Oeste 0 -- -- 85
2021-02-08 23:00:00 4.5 3 Oeste 21 Oeste 0 -- -- 87
2021-02-08 22:00:00 4.7 6 Sur 24 Oeste 0 -- -- 86
2021-02-08 21:00:00 5.8 9 Oeste 17 Noroeste 0 -- -- 79
2021-02-08 20:00:00 5.8 7 Sur 15 Sur 0 -- -- 77
2021-02-08 19:00:00 5.6 4 Sudeste 17 Oeste 0 -- -- 82
2021-02-08 18:00:00 5.8 12 Sudoeste 37 Oeste 0 -- -- 84
2021-02-08 17:00:00 6.4 16 Sudoeste 27 Sudoeste 0 -- -- 80
2021-02-08 16:00:00 7.4 17 Sudoeste 32 Sudoeste 0 -- -- 75
2021-02-08 15:00:00 6.9 13 Sur 28 Sudoeste 0 -- -- 73
2021-02-08 14:00:00 5.9 10 Sur 26 Este 0 -- -- 75
2021-02-08 13:00:00 5.6 12 Sudoeste 19 Sudoeste 0 -- -- 76
2021-02-08 12:00:00 4.6 6 Sudeste 13 Sur 0 -- -- 84
2021-02-08 11:00:00 4 6 Este 15 Sudeste 1.2 -- -- 89
2021-02-08 10:00:00 3.8 7 Sudoeste 27 Sur 0.6 -- -- 89
2021-02-08 09:00:00 4.6 12 Sur 21 Sur 0 -- -- 85
2021-02-08 08:00:00 4.1 3 Oeste 13 Este 0 -- -- 87
2021-02-08 07:00:00 4.7 3 Sudeste 15 Noroeste 0 -- -- 86
2021-02-08 06:00:00 5.1 6 Noroeste 23 Noroeste 0.2 -- -- 87
2021-02-08 05:00:00 5.2 17 Oeste 38 Noroeste 1.4 -- -- 86
2021-02-08 04:00:00 4.6 12 Sur 37 Sudoeste 5 -- -- 90
2021-02-08 03:00:00 4.8 21 Sudoeste 35 Sudoeste 4.6 -- -- 91
2021-02-08 02:00:00 4.4 17 Sudoeste 41 Sur 2.6 -- -- 91
2021-02-08 01:00:00 4.6 27 Sudoeste 41 Sudoeste 1.6 -- -- 89
2021-02-08 00:00:00 4.3 28 Sudoeste 42 Sudoeste 0.6 -- -- 89
2021-02-07 23:00:00 4.1 25 Sudoeste 39 Sudoeste 0 -- -- 90
2021-02-07 22:00:00 3.8 24 Oeste 43 Oeste 0 -- -- 91
2021-02-07 21:00:00 3.1 21 Oeste 40 Oeste 0 -- -- 92
2021-02-07 20:00:00 2.6 17 Sudoeste 36 Sudoeste 0 -- -- 95
2021-02-07 19:00:00 3.7 20 Sudoeste 33 Sudoeste 0.4 -- -- 91
2021-02-07 18:00:00 3.9 18 Sudoeste 32 Sudoeste 0.4 -- -- 89
2021-02-07 17:00:00 5 2 Sudeste 20 Este 1.2 -- -- 84
2021-02-07 16:00:00 6.3 10 Sudoeste 21 Nordeste 0 -- -- 72
2021-02-07 15:00:00 7.5 9 Nordeste 23 Norte 0 -- -- 59
2021-02-07 14:00:00 9.1 6 Nordeste 18 Norte 0 -- -- 40
2021-02-07 13:00:00 7.8 9 Norte 18 Nordeste 0 -- -- 64
2021-02-07 12:00:00 7 5 Norte 10 Nordeste 0 -- -- 66
2021-02-07 11:00:00 5.9 4 Nordeste 11 Sur 0 -- -- 75
2021-02-07 10:00:00 3.3 8 Sur 15 Sur 0 -- -- 86
2021-02-07 09:00:00 0.4 4 Sudoeste 5 Oeste 0 -- -- 95
2021-02-07 08:00:00 1.2 4 Sudoeste 9 Oeste 0 -- -- 95
2021-02-07 07:00:00 1.4 4 Sudoeste 7 Oeste 0 -- -- 95
2021-02-07 06:00:00 1.3 3 Oeste 6 Norte 0 -- -- 96
2021-02-07 05:00:00 0.6 3 Este 6 Sudoeste 0 -- -- 95
2021-02-07 04:00:00 0.7 4 Sudoeste 5 Sudoeste 0 -- -- 93
2021-02-07 03:00:00 1.8 4 Este 7 Norte 0 -- -- 91
2021-02-07 02:00:00 2.9 0 Calma 6 Norte 0 -- -- 89
2021-02-07 01:00:00 3.5 6 Norte 15 Norte 0 -- -- 86
2021-02-07 00:00:00 4.1 8 Norte 20 Norte 0 -- -- 86
2021-02-06 23:00:00 4.1 10 Norte 18 Norte 0 -- -- 86
2021-02-06 22:00:00 4.5 10 Norte 21 Norte 0 -- -- 86
2021-02-06 21:00:00 5 6 Nordeste 19 Nordeste 0 -- -- 88
2021-02-06 20:00:00 5.5 9 Norte 21 Nordeste 0 -- -- 90
2021-02-06 19:00:00 5.9 6 Norte 19 Norte 0 -- -- 90
2021-02-06 18:00:00 6.3 7 Nordeste 17 Este 0.4 -- -- 88
2021-02-06 17:00:00 6.3 11 Oeste 19 Oeste 0.4 -- -- 87
2021-02-06 16:00:00 8.2 5 Este 18 Norte 0.4 -- -- 86
2021-02-06 15:00:00 8.3 13 Norte 20 Norte 0.2 -- -- 83
2021-02-06 14:00:00 9.9 4 Noroeste 12 Este 0 -- -- 70
2021-02-06 13:00:00 7.3 5 Nordeste 12 Norte 0 -- -- 87
2021-02-06 12:00:00 6.4 5 Norte 9 Norte 0 -- -- 92
2021-02-06 11:00:00 5.7 3 Norte 5 Noroeste 0 -- -- 94
2021-02-06 10:00:00 5.1 0 Calma 5 Nordeste 0.2 -- -- 96
2021-02-06 09:00:00 4.7 0 Calma -- -- 0 -- -- 96
2021-02-06 08:00:00 4.6 0 Calma 4 Este 0 -- -- 95
2021-02-06 07:00:00 4.5 3 Sudeste 5 Sudeste 0.4 -- -- 95
2021-02-06 06:00:00 4.4 4 Oeste 8 Sur 0.4 -- -- 94
2021-02-06 05:00:00 4.4 3 Noroeste 12 Sudoeste 0 -- -- 93
2021-02-06 04:00:00 4.5 6 Sudoeste 13 Sur 0.4 -- -- 92
2021-02-06 03:00:00 4.7 4 Oeste 9 Sudoeste 0.2 -- -- 93
2021-02-06 02:00:00 5.1 6 Sudoeste 12 Sur 0.4 -- -- 90
2021-02-06 01:00:00 5.7 5 Sudoeste 13 Sur 1 -- -- 92
2021-02-06 00:00:00 5.9 4 Oeste 9 Oeste 0.2 -- -- 91
2021-02-05 23:00:00 6.1 8 Oeste 17 Sur 0.4 -- -- 89
2021-02-05 22:00:00 6.1 4 Sudoeste 17 Sudoeste 0.4 -- -- 89
2021-02-05 21:00:00 6.8 11 Sudoeste 17 Sudoeste 4.2 -- -- 95
2021-02-05 20:00:00 6.8 5 Norte 14 Nordeste 0 -- -- 95
2021-02-05 19:00:00 7.2 6 Nordeste 12 Nordeste 0 -- -- 93
2021-02-05 18:00:00 7.7 5 Nordeste 13 Norte 0 -- -- 91
2021-02-05 17:00:00 8.1 5 Noroeste 18 Oeste 0 -- -- 89
2021-02-05 16:00:00 9.4 5 Sur 11 Sur 0.6 -- -- 84
2021-02-05 15:00:00 9.9 5 Norte 10 Norte 0 -- -- 80
2021-02-05 14:00:00 9.3 3 Nordeste 8 Nordeste 0 -- -- 85
2021-02-05 13:00:00 8.8 4 Oeste 6 Oeste 0 -- -- 84
2021-02-05 12:00:00 8.1 2 Noroeste 5 Oeste 0 -- -- 85
2021-02-05 11:00:00 8 4 Este 8 Este 0 -- -- 85
2021-02-05 10:00:00 6.7 5 Sudeste 27 Oeste 0.4 -- -- 89
2021-02-05 09:00:00 6.7 9 Oeste 16 Oeste 0.8 -- -- 95
2021-02-05 08:00:00 6.6 3 Sudeste 8 Oeste 0 -- -- 93
2021-02-05 07:00:00 7.3 5 Este 19 Sudoeste 0.6 -- -- 90
2021-02-05 06:00:00 7.3 9 Sur 24 Sudeste 2 -- -- 89
2021-02-05 05:00:00 5.8 5 Norte 17 Norte 1.4 -- -- 96
2021-02-05 04:00:00 4.5 5 Noroeste 18 Norte 1.4 -- -- 96
2021-02-05 03:00:00 4.2 8 Nordeste 22 Norte 0.4 -- -- 96
2021-02-05 02:00:00 4.2 4 Nordeste 12 Este 0 -- -- 96
2021-02-05 01:00:00 3.8 4 Sudeste 10 Sudoeste 0 -- -- 95
2021-02-05 00:00:00 4.4 3 Sudeste 14 Nordeste 0.2 -- -- 95
2021-02-04 23:00:00 4.2 5 Norte 10 Norte 0 -- -- 95
2021-02-04 22:00:00 4.3 3 Noroeste 17 Oeste 1.6 -- -- 94
2021-02-04 21:00:00 4 10 Sudoeste 19 Oeste 0 -- -- 94
2021-02-04 20:00:00 4 7 Sudoeste 13 Sur 0.2 -- -- 94
2021-02-04 19:00:00 4.5 4 Sudoeste 17 Oeste 0.4 -- -- 94
2021-02-04 18:00:00 4.4 3 Sur 6 Nordeste 0.8 -- -- 92
2021-02-04 17:00:00 4.6 5 Norte 10 Noroeste 0.6 -- -- 93
2021-02-04 16:00:00 4.4 4 Noroeste 15 Nordeste 0.4 -- -- 92
2021-02-04 15:00:00 3.8 8 Nordeste 26 Norte 2.6 -- -- 93
2021-02-04 14:00:00 5.3 13 Norte 22 Norte 0 -- -- 93
2021-02-04 13:00:00 6.1 8 Norte 28 Norte 0 -- -- 90
2021-02-04 12:00:00 6.4 13 Norte 27 Nordeste 0 -- -- 91
2021-02-04 11:00:00 7.5 12 Norte 22 Norte 0.2 -- -- 85
2021-02-04 10:00:00 6.5 4 Sur 10 Sur 0 -- -- 89
2021-02-04 09:00:00 6.1 7 Sudoeste 16 Oeste 0 -- -- 87
2021-02-04 08:00:00 6.1 8 Oeste 18 Oeste 0 -- -- 86
2021-02-04 07:00:00 6.1 6 Sur 17 Oeste 0 -- -- 86
2021-02-04 06:00:00 6.5 10 Sudoeste 21 Oeste 0 -- -- 84
2021-02-04 05:00:00 6.6 8 Oeste 20 Oeste 0 -- -- 86
2021-02-04 04:00:00 6.6 12 Oeste 35 Oeste 0 -- -- 85
2021-02-04 03:00:00 7 15 Oeste 24 Sur 0 -- -- 79
2021-02-04 02:00:00 7 12 Oeste 26 Sur 0 -- -- 79
2021-02-04 01:00:00 7.4 11 Sur 20 Sudoeste 0 -- -- 76
2021-02-04 00:00:00 7.1 5 Nordeste 17 Oeste 0 -- -- 81
2021-02-03 23:00:00 6.7 10 Oeste 24 Oeste 0 -- -- 90
2021-02-03 22:00:00 7 18 Oeste 37 Sudoeste 0.4 -- -- 88
2021-02-03 21:00:00 7.1 18 Oeste 34 Sudoeste 0.2 -- -- 89
2021-02-03 20:00:00 8 23 Oeste 37 Oeste 0.2 -- -- 91
2021-02-03 19:00:00 8.9 5 Oeste 26 Sudoeste 0.2 -- -- 91
2021-02-03 18:00:00 9.2 20 Sudoeste 37 Sudoeste 0 -- -- 89
2021-02-03 17:00:00 9.9 24 Sudoeste 41 Sudoeste 0 -- -- 84
2021-02-03 16:00:00 10 29 Sudoeste 47 Sudoeste 0 -- -- 86
2021-02-03 15:00:00 10.1 30 Sudoeste 45 Oeste 0 -- -- 84
2021-02-03 14:00:00 10 30 Sudoeste 48 Sudoeste 0 -- -- 82
2021-02-03 13:00:00 9.4 28 Sudoeste 44 Sudoeste 0 -- -- 84
2021-02-03 12:00:00 8.8 28 Sudoeste 45 Sudoeste 0 -- -- 86
2021-02-03 11:00:00 8.3 21 Sudoeste 37 Sudoeste 0 -- -- 87
2021-02-03 10:00:00 7 23 Sudoeste 35 Sudoeste 0 -- -- 90
2021-02-03 09:00:00 6.4 25 Sudoeste 46 Sudoeste 0 -- -- 92
2021-02-03 08:00:00 6.4 25 Sudoeste 41 Sudoeste 0 -- -- 92
2021-02-03 07:00:00 6.5 29 Sudoeste 45 Oeste 0 -- -- 91
2021-02-03 06:00:00 6.4 25 Sudoeste 40 Sudoeste 0 -- -- 91
2021-02-03 05:00:00 6.5 26 Sudoeste 40 Sudoeste 0 -- -- 91
2021-02-03 04:00:00 6.6 14 Sudoeste 31 Sudoeste 0 -- -- 90
2021-02-03 03:00:00 7.1 16 Sudoeste 27 Sudoeste 0 -- -- 88
2021-02-03 02:00:00 7.3 13 Sudoeste 38 Sudoeste 0 -- -- 86
2021-02-03 01:00:00 7.3 23 Sudoeste 44 Sudoeste 0 -- -- 86
2021-02-03 00:00:00 7.4 21 Sudoeste 46 Sudoeste 0 -- -- 82
2021-02-02 23:00:00 7.5 30 Sudoeste 65 Sudoeste 0 -- -- 78
2021-02-02 22:00:00 7.5 37 Sudoeste 59 Sudoeste 0 -- -- 79
2021-02-02 21:00:00 7.4 28 Sudoeste 61 Sudoeste 0 -- -- 81
2021-02-02 20:00:00 7.8 46 Sudoeste 66 Sudoeste 0 -- -- 79
2021-02-02 19:00:00 7.8 42 Sudoeste 60 Sudoeste 0 -- -- 81
2021-02-02 18:00:00 8.5 37 Sudoeste 58 Sudoeste 0 -- -- 82
2021-02-02 17:00:00 10 29 Sudoeste 59 Oeste 0 -- -- 77
2021-02-02 16:00:00 10.6 33 Sudoeste 60 Sudoeste 0 -- -- 75
2021-02-02 15:00:00 10.5 31 Oeste 60 Oeste 0 -- -- 77
2021-02-02 14:00:00 11.1 27 Oeste 57 Sudoeste 0 -- -- 73
2021-02-02 13:00:00 10.5 40 Sudoeste 59 Sudoeste 0 -- -- 76
2021-02-02 12:00:00 10.6 36 Sudoeste 52 Sudoeste 0 -- -- 75
2021-02-02 11:00:00 10.1 25 Sudoeste 46 Sudoeste 0 -- -- 81
2021-02-02 10:00:00 8.5 14 Sudoeste 31 Oeste 0 -- -- 84
2021-02-02 09:00:00 5.9 3 Sur 15 Oeste 0 -- -- 85
2021-02-02 08:00:00 6 5 Noroeste 13 Oeste 0 -- -- 89
2021-02-02 07:00:00 8.1 4 Noroeste 12 Oeste 0 -- -- 85
2021-02-02 06:00:00 8.3 6 Oeste 17 Oeste 0 -- -- 87
2021-02-02 05:00:00 8.7 11 Oeste 20 Oeste 0 -- -- 87
2021-02-02 04:00:00 8.2 7 Noroeste 16 Oeste 0 -- -- 88
2021-02-02 03:00:00 8.4 7 Oeste 19 Oeste 0 -- -- 87
2021-02-02 02:00:00 6.9 6 Sudoeste 18 Sudoeste 0 -- -- 93
2021-02-02 01:00:00 7.1 15 Oeste 23 Sudoeste 0 -- -- 94
2021-02-02 00:00:00 7 6 Sudoeste 21 Oeste 0 -- -- 91
2021-02-01 23:00:00 8 13 Oeste 24 Oeste 0 -- -- 90
2021-02-01 22:00:00 8.2 14 Oeste 24 Sudoeste 0 -- -- 90
2021-02-01 21:00:00 8.7 15 Oeste 22 Sudoeste 0 -- -- 88
2021-02-01 20:00:00 8.9 3 Sudeste 15 Oeste 0 -- -- 83
2021-02-01 19:00:00 9.1 9 Oeste 19 Oeste 0 -- -- 82
2021-02-01 18:00:00 11.5 7 Oeste 19 Sudoeste 0 -- -- 68
2021-02-01 17:00:00 13.1 12 Noroeste 32 Norte 0 -- -- 61
2021-02-01 16:00:00 13.1 12 Norte 34 Norte 0 -- -- 57
2021-02-01 15:00:00 12.8 22 Norte 42 Norte 0 -- -- 54
2021-02-01 14:00:00 12.6 16 Norte 34 Norte 0 -- -- 58
2021-02-01 13:00:00 12.4 11 Nordeste 28 Norte 0 -- -- 63
2021-02-01 12:00:00 11.4 7 Nordeste 19 Norte 0 -- -- 66
2021-02-01 11:00:00 9.5 6 Nordeste 16 Nordeste 0 -- -- 73
2021-02-01 10:00:00 7.1 6 Este 15 Nordeste 0 -- -- 81
2021-02-01 09:00:00 3 5 Este 9 Este 0 -- -- 89
2021-02-01 08:00:00 3 3 Nordeste 10 Este 0 -- -- 89
2021-02-01 07:00:00 5.1 4 Norte 24 Oeste 0 -- -- 80
2021-02-01 06:00:00 6.2 6 Norte 14 Noroeste 0 -- -- 77
2021-02-01 05:00:00 6.2 5 Norte 20 Nordeste 0 -- -- 77
2021-02-01 04:00:00 7.3 12 Nordeste 24 Nordeste 0 -- -- 74
2021-02-01 03:00:00 8.4 9 Nordeste 21 Norte 0 -- -- 65
2021-02-01 02:00:00 9.1 12 Norte 44 Noroeste 0 -- -- 61
2021-02-01 01:00:00 10.4 22 Noroeste 59 Oeste 0 -- -- 55
2021-02-01 00:00:00 10.5 19 Noroeste 45 Noroeste 0 -- -- 63
2021-01-31 23:00:00 10.4 10 Noroeste 39 Noroeste 0 -- -- 67
2021-01-31 22:00:00 10.5 10 Noroeste 39 Oeste 0 -- -- 66
2021-01-31 21:00:00 10.7 12 Noroeste 43 Noroeste 0 -- -- 66
2021-01-31 20:00:00 11.1 11 Noroeste 42 Oeste 0 -- -- 70
2021-01-31 19:00:00 11.4 14 Noroeste 39 Noroeste 0 -- -- 77
2021-01-31 18:00:00 12.3 19 Noroeste 45 Noroeste 0.2 -- -- 69
2021-01-31 17:00:00 12.5 12 Noroeste 22 Norte 0 -- -- 83
2021-01-31 16:00:00 12.4 13 Norte 30 Norte 0 -- -- 82
2021-01-31 15:00:00 13 13 Norte 28 Norte 0 -- -- 79
2021-01-31 14:00:00 12.6 8 Norte 34 Noroeste 0 -- -- 78
2021-01-31 13:00:00 11.5 12 Noroeste 38 Noroeste 0 -- -- 83
2021-01-31 12:00:00 9.4 10 Nordeste 21 Nordeste 0 -- -- 92
2021-01-31 11:00:00 8.6 9 Este 17 Este 0.2 -- -- 93
2021-01-31 10:00:00 7.5 4 Nordeste 14 Este 0 -- -- 92
2021-01-31 09:00:00 6.8 8 Este 18 Este 0 -- -- 88
2021-01-31 08:00:00 6.2 8 Nordeste 24 Nordeste 0.2 -- -- 87
2021-01-31 07:00:00 5.9 12 Nordeste 21 Nordeste 0 -- -- 87
2021-01-31 06:00:00 5.8 8 Nordeste 21 Oeste 0 -- -- 82
2021-01-31 05:00:00 5.6 5 Nordeste 14 Nordeste 0 -- -- 83
2021-01-31 04:00:00 5.6 6 Norte 18 Noroeste 0 -- -- 79
2021-01-31 03:00:00 5.2 3 Norte 31 Oeste 0 -- -- 76
2021-01-31 02:00:00 5.4 4 Noroeste 18 Noroeste 0 -- -- 75
2021-01-31 01:00:00 5.6 9 Norte 29 Noroeste 0 -- -- 76
2021-01-31 00:00:00 5.5 7 Norte 32 Noroeste 0.2 -- -- 81
2021-01-30 23:00:00 5.5 13 Norte 49 Noroeste 0 -- -- 81
2021-01-30 22:00:00 5.7 17 Noroeste 33 Norte 0.2 -- -- 78
2021-01-30 21:00:00 6.1 14 Noroeste 36 Noroeste 0 -- -- 72
2021-01-30 20:00:00 6.5 18 Noroeste 44 Noroeste 0.2 -- -- 74
2021-01-30 19:00:00 6.6 17 Oeste 33 Oeste 0 -- -- 71
2021-01-30 18:00:00 7 13 Noroeste 44 Oeste 0 -- -- 71
2021-01-30 17:00:00 7.4 23 Oeste 44 Oeste 0 -- -- 70
2021-01-30 16:00:00 7.9 14 Noroeste 39 Noroeste 0 -- -- 61
2021-01-30 15:00:00 9.3 14 Noroeste 39 Noroeste 0 -- -- 55
2021-01-30 14:00:00 9.4 17 Oeste 35 Noroeste 0 -- -- 59
2021-01-30 13:00:00 7.2 9 Noroeste 45 Oeste 0 -- -- 60
2021-01-30 12:00:00 7.6 10 Sudoeste 37 Oeste 0 -- -- 68
2021-01-30 11:00:00 7.2 15 Noroeste 34 Oeste 0 -- -- 67
2021-01-30 10:00:00 6.7 8 Noroeste 39 Oeste 0.2 -- -- 73
2021-01-30 09:00:00 6.7 19 Oeste 42 Oeste 0 -- -- 74
2021-01-30 08:00:00 7.4 23 Oeste 40 Oeste 0.2 -- -- 69
2021-01-30 07:00:00 7.7 21 Oeste 42 Noroeste 0.8 -- -- 84
2021-01-30 06:00:00 7.6 13 Sudoeste 26 Sur 0.6 -- -- 90
2021-01-30 05:00:00 7.7 14 Sudoeste 37 Oeste 2.2 -- -- 92
2021-01-30 04:00:00 8 27 Sudoeste 47 Oeste 0 -- -- 93
2021-01-30 03:00:00 7.9 28 Sudoeste 53 Sudoeste 0 -- -- 91
2021-01-30 02:00:00 7.9 31 Sudoeste 56 Sudoeste 0 -- -- 91
2021-01-30 01:00:00 9 28 Sudoeste 57 Sudoeste 0 -- -- 83
2021-01-30 00:00:00 10.2 13 Sudoeste 40 Sur 0 -- -- 75
2021-01-29 23:00:00 9.5 13 Oeste 31 Oeste 0 -- -- 83
2021-01-29 22:00:00 11.1 18 Oeste 33 Sudoeste 0 -- -- 74
2021-01-29 21:00:00 10.8 12 Sudoeste 27 Sudoeste 0 -- -- 74
2021-01-29 20:00:00 11 9 Oeste 27 Sudoeste 0 -- -- 71
2021-01-29 19:00:00 10.8 19 Sudoeste 32 Sudoeste 0 -- -- 77
2021-01-29 18:00:00 12.6 23 Oeste 39 Oeste 0 -- -- 71
2021-01-29 17:00:00 14.3 19 Oeste 33 Oeste 0 -- -- 65
2021-01-29 16:00:00 15.6 22 Oeste 34 Oeste 0 -- -- 59
2021-01-29 15:00:00 16.7 21 Oeste 38 Oeste 0 -- -- 54
2021-01-29 14:00:00 16.9 20 Oeste 35 Sudoeste 0 -- -- 51
2021-01-29 13:00:00 16.7 20 Oeste 32 Oeste 0 -- -- 53
2021-01-29 12:00:00 14.3 3 Oeste 10 Oeste 0 -- -- 66
2021-01-29 11:00:00 8.6 5 Sudoeste 9 Oeste 0 -- -- 78
2021-01-29 10:00:00 4.4 0 Calma 5 Oeste 0 -- -- 87
2021-01-29 09:00:00 2.2 3 Oeste 8 Sudoeste 0 -- -- 89
2021-01-29 08:00:00 3.4 4 Noroeste 9 Este 0 -- -- 87
2021-01-29 07:00:00 4.5 3 Norte 12 Oeste 0 -- -- 86
2021-01-29 06:00:00 4.7 6 Sudoeste 13 Nordeste 0 -- -- 82
2021-01-29 05:00:00 7.4 8 Norte 14 Nordeste 0 -- -- 76
2021-01-29 04:00:00 6.5 6 Oeste 15 Sudoeste 0 -- -- 77
2021-01-29 03:00:00 6.2 3 Oeste 13 Sudoeste 0 -- -- 77
2021-01-29 02:00:00 6.4 9 Oeste 16 Noroeste 0 -- -- 77
2021-01-29 01:00:00 4.7 3 Sur 7 Sudeste 0 -- -- 82
2021-01-29 00:00:00 5.3 0 Calma 7 Este 0 -- -- 81
2021-01-28 23:00:00 6.1 4 Este 9 Este 0 -- -- 80
2021-01-28 22:00:00 8.9 3 Sudeste 15 Oeste 0 -- -- 70
2021-01-28 21:00:00 11.6 12 Oeste 26 Sudoeste 0 -- -- 62
2021-01-28 20:00:00 12.6 15 Sudoeste 28 Sudoeste 0 -- -- 57
2021-01-28 19:00:00 12.7 13 Oeste 31 Sudoeste 0 -- -- 66
2021-01-28 18:00:00 14.5 20 Sudoeste 36 Sudoeste 0 -- -- 61
2021-01-28 17:00:00 16.6 17 Sudoeste 29 Sudoeste 0 -- -- 54
2021-01-28 16:00:00 17.8 14 Oeste 27 Sudoeste 0 -- -- 52
2021-01-28 15:00:00 18.6 14 Oeste 28 Oeste 0 -- -- 48
2021-01-28 14:00:00 18.4 15 Sudoeste 25 Oeste 0 -- -- 49
2021-01-28 13:00:00 17.1 4 Norte 12 Nordeste 0 -- -- 57
2021-01-28 12:00:00 14.1 4 Nordeste 7 Nordeste 0 -- -- 68
2021-01-28 11:00:00 10.4 2 Norte 10 Oeste 0 -- -- 79
2021-01-28 10:00:00 6.8 7 Sudoeste 17 Sudoeste 0 -- -- 88
2021-01-28 09:00:00 4.2 11 Sudoeste 17 Sudoeste 0 -- -- 92
2021-01-28 08:00:00 4.2 8 Sudoeste 20 Sudoeste 0 -- -- 90
2021-01-28 07:00:00 4.1 10 Sudoeste 19 Oeste 0 -- -- 92
2021-01-28 06:00:00 4.1 10 Oeste 18 Sudoeste 0 -- -- 93
2021-01-28 05:00:00 4 8 Sudoeste 12 Sudoeste 0 -- -- 93
2021-01-28 04:00:00 4.6 6 Sudoeste 13 Sur 0 -- -- 91
2021-01-28 03:00:00 5.4 9 Sur 17 Sudoeste 0 -- -- 92
2021-01-28 02:00:00 5.4 5 Sur 13 Oeste 0 -- -- 91
2021-01-28 01:00:00 5.3 7 Oeste 12 Oeste 0 -- -- 92
2021-01-28 00:00:00 6.3 5 Oeste 13 Sudoeste 0 -- -- 90
2021-01-27 23:00:00 7.4 8 Sudoeste 15 Sudoeste 0 -- -- 90
2021-01-27 22:00:00 8.3 6 Oeste 12 Oeste 0 -- -- 87
2021-01-27 21:00:00 9.1 8 Sudoeste 12 Sudoeste 0 -- -- 85
2021-01-27 20:00:00 11.2 5 Este 10 Este 0 -- -- 79
2021-01-27 19:00:00 14.3 3 Noroeste 8 Noroeste 0 -- -- 68
2021-01-27 18:00:00 17.1 2 Norte 10 Noroeste 0 -- -- 61
2021-01-27 17:00:00 18 8 Norte 13 Norte 0 -- -- 54
2021-01-27 16:00:00 18.4 6 Norte 18 Norte 0 -- -- 48
2021-01-27 15:00:00 18.3 8 Norte 14 Norte 0 -- -- 47
2021-01-27 14:00:00 17.5 4 Sudoeste 10 Oeste 0 -- -- 57
2021-01-27 13:00:00 16.3 5 Sudoeste 10 Sudoeste 0 -- -- 61
2021-01-27 12:00:00 14.4 6 Sudoeste 10 Sur 0 -- -- 75
2021-01-27 11:00:00 11.5 7 Sudoeste 12 Sur 0 -- -- 91
2021-01-27 10:00:00 9.5 0 Calma 6 Noroeste 0 -- -- 97
2021-01-27 09:00:00 8.6 0 Calma 4 Sudoeste 0 -- -- 96
2021-01-27 08:00:00 9 0 Calma 4 Sudeste 0 -- -- 96
2021-01-27 07:00:00 10 0 Calma 8 Nordeste 0.2 -- -- 96
2021-01-27 06:00:00 10.3 4 Este 7 Nordeste 0.4 -- -- 96
2021-01-27 05:00:00 10.5 5 Nordeste 9 Nordeste 0 -- -- 96
2021-01-27 04:00:00 10.6 4 Nordeste 10 Norte 0 -- -- 96
2021-01-27 03:00:00 10.7 3 Nordeste 8 Este 0 -- -- 96
2021-01-27 02:00:00 10.5 3 Este 6 Este 0.4 -- -- 96
2021-01-27 01:00:00 10.7 2 Este 5 Este 0.2 -- -- 95
2021-01-27 00:00:00 10.7 0 Calma 7 Sudoeste 0.2 -- -- 95
2021-01-26 23:00:00 11.1 3 Este 8 Este 0.2 -- -- 94
2021-01-26 22:00:00 10.8 2 Este 8 Sudoeste 0 -- -- 93
2021-01-26 21:00:00 11.1 4 Sudoeste 9 Oeste 0 -- -- 92
2021-01-26 20:00:00 11.8 2 Oeste 5 Oeste 0 -- -- 91
2021-01-26 19:00:00 12.2 4 Oeste 8 Noroeste 0 -- -- 86
2021-01-26 18:00:00 12.9 4 Noroeste 9 Noroeste 0 -- -- 84
2021-01-26 17:00:00 13.4 3 Noroeste 7 Oeste 0 -- -- 83
2021-01-26 16:00:00 13.5 3 Noroeste 13 Sudoeste 0 -- -- 82
2021-01-26 15:00:00 13.7 4 Nordeste 10 Nordeste 0 -- -- 81
2021-01-26 14:00:00 13.2 6 Este 10 Este 0 -- -- 83
2021-01-26 13:00:00 12 4 Nordeste 9 Nordeste 0 -- -- 87
2021-01-26 12:00:00 10.9 3 Sur 8 Oeste 0 -- -- 91
2021-01-26 11:00:00 9.6 0 Calma 6 Sudoeste 0.2 -- -- 94
2021-01-26 10:00:00 8.9 4 Sudoeste 8 Sudoeste 0 -- -- 95
2021-01-26 09:00:00 8.4 4 Sudoeste 6 Sudoeste 0 -- -- 95
2021-01-26 08:00:00 8.5 0 Calma 8 Oeste 0 -- -- 95
2021-01-26 07:00:00 8.7 4 Oeste 8 Oeste 0 -- -- 94
2021-01-26 06:00:00 9.2 0 Calma 6 Oeste 0 -- -- 92
2021-01-26 05:00:00 9.4 3 Noroeste 12 Nordeste 0 -- -- 92
2021-01-26 04:00:00 9.7 7 Nordeste 18 Oeste 0 -- -- 91
2021-01-26 03:00:00 10.2 9 Noroeste 21 Noroeste 0 -- -- 88
2021-01-26 02:00:00 9.7 4 Nordeste 8 Norte 0 -- -- 93
2021-01-26 01:00:00 9.5 4 Nordeste 13 Nordeste 0 -- -- 94
2021-01-26 00:00:00 9.6 6 Nordeste 22 Noroeste 0 -- -- 94
2021-01-25 23:00:00 9.7 7 Norte 17 Noroeste 0 -- -- 94
2021-01-25 22:00:00 9.5 9 Nordeste 16 Norte 0 -- -- 94
2021-01-25 21:00:00 9.8 6 Norte 22 Norte 0 -- -- 91
2021-01-25 20:00:00 10.9 14 Noroeste 32 Noroeste 0 -- -- 83
2021-01-25 19:00:00 11.1 17 Noroeste 38 Noroeste 0.2 -- -- 83
2021-01-25 18:00:00 11.5 13 Noroeste 37 Noroeste 0 -- -- 83
2021-01-25 17:00:00 12 16 Noroeste 40 Oeste 0 -- -- 79
2021-01-25 16:00:00 12.9 19 Oeste 34 Oeste 0 -- -- 74
2021-01-25 15:00:00 12.2 15 Oeste 42 Oeste 0 -- -- 73
2021-01-25 14:00:00 11.5 5 Sudoeste 19 Sudoeste 0 -- -- 81
2021-01-25 13:00:00 10.9 4 Oeste 36 Sudoeste 0 -- -- 83
2021-01-25 12:00:00 11.1 21 Sudoeste 36 Sudoeste 0 -- -- 81
2021-01-25 11:00:00 10.8 22 Sudoeste 38 Sur 0 -- -- 80
2021-01-25 10:00:00 10.6 23 Sudoeste 35 Sudoeste 0 -- -- 79
2021-01-25 09:00:00 9.7 17 Sudoeste 36 Sudoeste 0 -- -- 83
2021-01-25 08:00:00 9.5 23 Sudoeste 42 Sudoeste 0 -- -- 83
2021-01-25 07:00:00 9.3 26 Sudoeste 40 Sudoeste 0 -- -- 82
2021-01-25 06:00:00 8.6 18 Sudoeste 30 Sudoeste 0 -- -- 86
2021-01-25 05:00:00 8.7 20 Sudoeste 40 Sudoeste 0 -- -- 85
2021-01-25 04:00:00 8.1 22 Oeste 39 Oeste 0 -- -- 87
2021-01-25 03:00:00 7.7 20 Oeste 37 Oeste 0 -- -- 87
2021-01-25 02:00:00 7.4 20 Oeste 35 Oeste 0 -- -- 89
2021-01-25 01:00:00 7.1 22 Sudoeste 36 Sudoeste 0 -- -- 86
2021-01-25 00:00:00 6.8 15 Oeste 27 Oeste 0 -- -- 87